sensor_id;sensor_type;location;lat;lon;timestamp;temperature;humidity
66928;DHT22;59882;45.624;11.698;2023-05-13T00:00:10;14.40;83.00
66928;DHT22;59882;45.624;11.698;2023-05-13T00:02:36;14.40;82.90
66928;DHT22;59882;45.624;11.698;2023-05-13T00:05:02;14.40;82.90
66928;DHT22;59882;45.624;11.698;2023-05-13T00:07:27;14.40;83.10
66928;DHT22;59882;45.624;11.698;2023-05-13T00:09:53;14.40;83.00
66928;DHT22;59882;45.624;11.698;2023-05-13T00:12:19;14.40;83.00
66928;DHT22;59882;45.624;11.698;2023-05-13T00:14:44;14.30;82.90
66928;DHT22;59882;45.624;11.698;2023-05-13T00:17:10;14.30;83.00
66928;DHT22;59882;45.624;11.698;2023-05-13T00:19:36;14.30;82.90
66928;DHT22;59882;45.624;11.698;2023-05-13T00:22:01;14.20;82.80
66928;DHT22;59882;45.624;11.698;2023-05-13T00:24:27;14.20;82.70
66928;DHT22;59882;45.624;11.698;2023-05-13T00:26:53;14.10;82.80
66928;DHT22;59882;45.624;11.698;2023-05-13T00:29:18;14.00;82.70
66928;DHT22;59882;45.624;11.698;2023-05-13T00:31:44;14.00;82.60
66928;DHT22;59882;45.624;11.698;2023-05-13T00:34:10;13.90;82.60
66928;DHT22;59882;45.624;11.698;2023-05-13T00:36:35;13.90;82.70
66928;DHT22;59882;45.624;11.698;2023-05-13T00:39:01;13.90;82.70
66928;DHT22;59882;45.624;11.698;2023-05-13T00:41:27;13.90;82.80
66928;DHT22;59882;45.624;11.698;2023-05-13T00:43:55;13.90;82.70
66928;DHT22;59882;45.624;11.698;2023-05-13T00:46:22;13.90;82.70
66928;DHT22;59882;45.624;11.698;2023-05-13T00:48:49;13.90;82.70
66928;DHT22;59882;45.624;11.698;2023-05-13T00:51:15;13.90;82.70
66928;DHT22;59882;45.624;11.698;2023-05-13T00:53:41;13.90;82.70
66928;DHT22;59882;45.624;11.698;2023-05-13T00:56:07;13.90;82.70
66928;DHT22;59882;45.624;11.698;2023-05-13T00:58:33;13.90;82.70
66928;DHT22;59882;45.624;11.698;2023-05-13T01:01:22;13.90;82.70
66928;DHT22;59882;45.624;11.698;2023-05-13T01:09:14;13.90;83.00
66928;DHT22;59882;45.624;11.698;2023-05-13T01:11:41;13.90;82.90
66928;DHT22;59882;45.624;11.698;2023-05-13T01:14:12;13.90;83.00
66928;DHT22;59882;45.624;11.698;2023-05-13T01:16:48;13.90;82.90
66928;DHT22;59882;45.624;11.698;2023-05-13T01:19:36;13.90;82.90
66928;DHT22;59882;45.624;11.698;2023-05-13T01:22:04;13.80;82.90
66928;DHT22;59882;45.624;11.698;2023-05-13T01:24:31;13.80;83.00
66928;DHT22;59882;45.624;11.698;2023-05-13T01:26:58;13.80;83.10
66928;DHT22;59882;45.624;11.698;2023-05-13T01:29:23;13.70;83.20
66928;DHT22;59882;45.624;11.698;2023-05-13T01:31:50;13.70;83.10
66928;DHT22;59882;45.624;11.698;2023-05-13T01:34:18;13.70;83.20
66928;DHT22;59882;45.624;11.698;2023-05-13T01:36:45;13.70;83.20
66928;DHT22;59882;45.624;11.698;2023-05-13T01:39:12;13.70;83.10
66928;DHT22;59882;45.624;11.698;2023-05-13T01:41:38;13.70;83.10
66928;DHT22;59882;45.624;11.698;2023-05-13T01:44:04;13.60;83.00
66928;DHT22;59882;45.624;11.698;2023-05-13T01:46:30;13.60;83.10
66928;DHT22;59882;45.624;11.698;2023-05-13T01:48:56;13.60;83.10
66928;DHT22;59882;45.624;11.698;2023-05-13T01:51:22;13.60;83.20
66928;DHT22;59882;45.624;11.698;2023-05-13T01:53:48;13.60;83.10
66928;DHT22;59882;45.624;11.698;2023-05-13T01:56:13;13.60;83.10
66928;DHT22;59882;45.624;11.698;2023-05-13T01:58:39;13.70;83.20
66928;DHT22;59882;45.624;11.698;2023-05-13T02:01:05;13.60;83.10
66928;DHT22;59882;45.624;11.698;2023-05-13T02:03:32;13.60;83.10
66928;DHT22;59882;45.624;11.698;2023-05-13T02:05:58;13.60;83.00
66928;DHT22;59882;45.624;11.698;2023-05-13T02:08:23;13.60;82.90
66928;DHT22;59882;45.624;11.698;2023-05-13T02:10:58;13.60;82.90
66928;DHT22;59882;45.624;11.698;2023-05-13T02:13:25;13.60;82.90
66928;DHT22;59882;45.624;11.698;2023-05-13T02:15:51;13.60;82.90
66928;DHT22;59882;45.624;11.698;2023-05-13T02:18:17;13.60;82.80
66928;DHT22;59882;45.624;11.698;2023-05-13T02:20:44;13.60;82.90
66928;DHT22;59882;45.624;11.698;2023-05-13T02:23:09;13.60;82.90
66928;DHT22;59882;45.624;11.698;2023-05-13T02:25:35;13.60;83.00
66928;DHT22;59882;45.624;11.698;2023-05-13T02:28:01;13.60;83.00
66928;DHT22;59882;45.624;11.698;2023-05-13T02:30:27;13.60;83.00
66928;DHT22;59882;45.624;11.698;2023-05-13T02:32:53;13.50;82.90
66928;DHT22;59882;45.624;11.698;2023-05-13T02:35:21;13.60;83.00
66928;DHT22;59882;45.624;11.698;2023-05-13T02:37:47;13.60;82.90
66928;DHT22;59882;45.624;11.698;2023-05-13T02:40:13;13.50;82.90
66928;DHT22;59882;45.624;11.698;2023-05-13T02:42:39;13.50;83.10
66928;DHT22;59882;45.624;11.698;2023-05-13T02:45:05;13.50;83.00
66928;DHT22;59882;45.624;11.698;2023-05-13T02:47:31;13.60;83.10
66928;DHT22;59882;45.624;11.698;2023-05-13T02:49:57;13.50;83.10
66928;DHT22;59882;45.624;11.698;2023-05-13T02:52:23;13.50;83.20
66928;DHT22;59882;45.624;11.698;2023-05-13T02:54:48;13.50;83.10
66928;DHT22;59882;45.624;11.698;2023-05-13T02:57:14;13.50;83.10
66928;DHT22;59882;45.624;11.698;2023-05-13T02:59:40;13.50;83.10
66928;DHT22;59882;45.624;11.698;2023-05-13T03:02:06;13.50;83.40
66928;DHT22;59882;45.624;11.698;2023-05-13T03:04:32;13.40;83.40
66928;DHT22;59882;45.624;11.698;2023-05-13T03:06:58;13.40;83.40
66928;DHT22;59882;45.624;11.698;2023-05-13T03:09:23;13.40;83.40
66928;DHT22;59882;45.624;11.698;2023-05-13T03:11:49;13.50;83.50
66928;DHT22;59882;45.624;11.698;2023-05-13T03:14:15;13.40;83.50
66928;DHT22;59882;45.624;11.698;2023-05-13T03:16:40;13.40;83.60
66928;DHT22;59882;45.624;11.698;2023-05-13T03:19:06;13.40;83.70
66928;DHT22;59882;45.624;11.698;2023-05-13T03:21:32;13.40;83.60
66928;DHT22;59882;45.624;11.698;2023-05-13T03:23:58;13.40;83.70
66928;DHT22;59882;45.624;11.698;2023-05-13T03:26:23;13.40;83.80
66928;DHT22;59882;45.624;11.698;2023-05-13T03:28:49;13.40;83.70
66928;DHT22;59882;45.624;11.698;2023-05-13T03:31:15;13.40;83.70
66928;DHT22;59882;45.624;11.698;2023-05-13T03:33:42;13.40;83.80
66928;DHT22;59882;45.624;11.698;2023-05-13T03:36:08;13.40;83.70
66928;DHT22;59882;45.624;11.698;2023-05-13T03:38:34;13.40;83.70
66928;DHT22;59882;45.624;11.698;2023-05-13T03:40:59;13.40;84.00
66928;DHT22;59882;45.624;11.698;2023-05-13T03:43:25;13.40;83.90
66928;DHT22;59882;45.624;11.698;2023-05-13T03:45:51;13.40;84.00
66928;DHT22;59882;45.624;11.698;2023-05-13T03:48:17;13.40;84.10
66928;DHT22;59882;45.624;11.698;2023-05-13T03:50:42;13.40;84.00
66928;DHT22;59882;45.624;11.698;2023-05-13T03:53:09;13.40;84.00
66928;DHT22;59882;45.624;11.698;2023-05-13T03:55:35;13.40;84.00
66928;DHT22;59882;45.624;11.698;2023-05-13T03:58:13;13.40;84.00
66928;DHT22;59882;45.624;11.698;2023-05-13T04:00:39;13.40;83.90
66928;DHT22;59882;45.624;11.698;2023-05-13T04:03:05;13.50;84.00
66928;DHT22;59882;45.624;11.698;2023-05-13T04:05:31;13.50;83.90
66928;DHT22;59882;45.624;11.698;2023-05-13T04:07:57;13.50;83.80
66928;DHT22;59882;45.624;11.698;2023-05-13T04:10:23;13.50;83.80
66928;DHT22;59882;45.624;11.698;2023-05-13T04:12:49;13.50;83.70
66928;DHT22;59882;45.624;11.698;2023-05-13T04:15:14;13.50;83.70
66928;DHT22;59882;45.624;11.698;2023-05-13T04:17:40;13.50;83.70
66928;DHT22;59882;45.624;11.698;2023-05-13T04:20:06;13.50;83.80
66928;DHT22;59882;45.624;11.698;2023-05-13T04:22:34;13.50;83.80
66928;DHT22;59882;45.624;11.698;2023-05-13T04:25:00;13.60;83.70
66928;DHT22;59882;45.624;11.698;2023-05-13T04:27:26;13.50;83.60
66928;DHT22;59882;45.624;11.698;2023-05-13T04:29:51;13.60;83.70
66928;DHT22;59882;45.624;11.698;2023-05-13T04:32:17;13.60;83.60
66928;DHT22;59882;45.624;11.698;2023-05-13T04:34:50;13.60;83.70
66928;DHT22;59882;45.624;11.698;2023-05-13T04:37:16;13.70;83.60
66928;DHT22;59882;45.624;11.698;2023-05-13T04:39:46;13.70;83.80
66928;DHT22;59882;45.624;11.698;2023-05-13T04:42:15;13.70;83.90
66928;DHT22;59882;45.624;11.698;2023-05-13T04:44:41;13.70;83.80
66928;DHT22;59882;45.624;11.698;2023-05-13T04:47:07;13.80;83.80
66928;DHT22;59882;45.624;11.698;2023-05-13T04:49:33;13.80;83.80
66928;DHT22;59882;45.624;11.698;2023-05-13T04:52:03;13.80;83.90
66928;DHT22;59882;45.624;11.698;2023-05-13T04:54:29;13.80;84.00
66928;DHT22;59882;45.624;11.698;2023-05-13T04:56:55;13.80;84.00
66928;DHT22;59882;45.624;11.698;2023-05-13T04:59:21;13.80;84.10
66928;DHT22;59882;45.624;11.698;2023-05-13T05:01:47;13.90;84.20
66928;DHT22;59882;45.624;11.698;2023-05-13T05:04:13;13.90;84.10
66928;DHT22;59882;45.624;11.698;2023-05-13T05:06:39;13.90;84.20
66928;DHT22;59882;45.624;11.698;2023-05-13T05:09:05;13.90;84.10
66928;DHT22;59882;45.624;11.698;2023-05-13T05:11:31;13.90;84.10
66928;DHT22;59882;45.624;11.698;2023-05-13T05:13:57;14.00;84.20
66928;DHT22;59882;45.624;11.698;2023-05-13T05:16:23;14.00;84.30
66928;DHT22;59882;45.624;11.698;2023-05-13T05:18:49;14.00;84.10
66928;DHT22;59882;45.624;11.698;2023-05-13T05:21:15;14.00;84.20
66928;DHT22;59882;45.624;11.698;2023-05-13T05:23:42;14.10;84.20
66928;DHT22;59882;45.624;11.698;2023-05-13T05:26:08;14.10;84.30
66928;DHT22;59882;45.624;11.698;2023-05-13T05:28:34;14.10;84.30
66928;DHT22;59882;45.624;11.698;2023-05-13T05:31:01;14.10;84.20
66928;DHT22;59882;45.624;11.698;2023-05-13T05:33:27;14.20;84.20
66928;DHT22;59882;45.624;11.698;2023-05-13T05:35:53;14.20;84.20
66928;DHT22;59882;45.624;11.698;2023-05-13T05:38:19;14.30;84.20
66928;DHT22;59882;45.624;11.698;2023-05-13T05:40:45;14.30;84.10
66928;DHT22;59882;45.624;11.698;2023-05-13T05:43:11;14.40;84.00
66928;DHT22;59882;45.624;11.698;2023-05-13T05:45:37;14.40;83.90
66928;DHT22;59882;45.624;11.698;2023-05-13T05:48:03;14.40;83.70
66928;DHT22;59882;45.624;11.698;2023-05-13T05:50:30;14.50;83.80
66928;DHT22;59882;45.624;11.698;2023-05-13T05:52:56;14.60;83.70
66928;DHT22;59882;45.624;11.698;2023-05-13T05:55:24;14.60;83.90
66928;DHT22;59882;45.624;11.698;2023-05-13T05:57:50;14.70;83.70
66928;DHT22;59882;45.624;11.698;2023-05-13T06:00:16;14.80;83.60
66928;DHT22;59882;45.624;11.698;2023-05-13T06:02:43;14.80;83.60
66928;DHT22;59882;45.624;11.698;2023-05-13T06:05:09;14.90;83.10
66928;DHT22;59882;45.624;11.698;2023-05-13T06:07:35;15.00;82.90
66928;DHT22;59882;45.624;11.698;2023-05-13T06:10:01;15.00;82.70
66928;DHT22;59882;45.624;11.698;2023-05-13T06:12:27;15.10;82.60
66928;DHT22;59882;45.624;11.698;2023-05-13T06:14:52;15.20;82.60
66928;DHT22;59882;45.624;11.698;2023-05-13T06:17:18;15.20;82.00
66928;DHT22;59882;45.624;11.698;2023-05-13T06:19:44;15.30;82.20
66928;DHT22;59882;45.624;11.698;2023-05-13T06:22:10;15.30;82.00
66928;DHT22;59882;45.624;11.698;2023-05-13T06:24:37;15.40;81.80
66928;DHT22;59882;45.624;11.698;2023-05-13T06:27:03;15.40;81.50
66928;DHT22;59882;45.624;11.698;2023-05-13T06:29:29;15.50;81.40
66928;DHT22;59882;45.624;11.698;2023-05-13T06:31:55;15.50;81.40
66928;DHT22;59882;45.624;11.698;2023-05-13T06:34:21;15.60;81.30
66928;DHT22;59882;45.624;11.698;2023-05-13T06:36:47;15.70;81.10
66928;DHT22;59882;45.624;11.698;2023-05-13T06:39:12;15.70;80.80
66928;DHT22;59882;45.624;11.698;2023-05-13T06:41:39;15.70;80.50
66928;DHT22;59882;45.624;11.698;2023-05-13T06:44:05;15.70;80.50
66928;DHT22;59882;45.624;11.698;2023-05-13T06:46:31;15.70;80.40
66928;DHT22;59882;45.624;11.698;2023-05-13T06:48:57;15.70;80.20
66928;DHT22;59882;45.624;11.698;2023-05-13T06:51:26;15.70;80.50
66928;DHT22;59882;45.624;11.698;2023-05-13T06:53:53;15.70;80.30
66928;DHT22;59882;45.624;11.698;2023-05-13T06:56:19;15.70;80.10
66928;DHT22;59882;45.624;11.698;2023-05-13T06:58:48;15.80;80.20
66928;DHT22;59882;45.624;11.698;2023-05-13T07:01:15;15.80;80.30
66928;DHT22;59882;45.624;11.698;2023-05-13T07:03:42;15.90;80.40
66928;DHT22;59882;45.624;11.698;2023-05-13T07:06:08;15.90;80.60
66928;DHT22;59882;45.624;11.698;2023-05-13T07:08:34;15.90;80.30
66928;DHT22;59882;45.624;11.698;2023-05-13T07:11:01;15.90;80.20
66928;DHT22;59882;45.624;11.698;2023-05-13T07:13:27;15.90;80.10
66928;DHT22;59882;45.624;11.698;2023-05-13T07:15:53;16.00;79.70
66928;DHT22;59882;45.624;11.698;2023-05-13T07:18:19;15.90;79.50
66928;DHT22;59882;45.624;11.698;2023-05-13T07:20:45;15.90;79.60
66928;DHT22;59882;45.624;11.698;2023-05-13T07:23:11;15.90;79.50
66928;DHT22;59882;45.624;11.698;2023-05-13T07:25:36;16.00;79.50
66928;DHT22;59882;45.624;11.698;2023-05-13T07:28:02;16.00;79.50
66928;DHT22;59882;45.624;11.698;2023-05-13T07:30:29;16.00;79.20
66928;DHT22;59882;45.624;11.698;2023-05-13T07:32:55;16.00;79.30
66928;DHT22;59882;45.624;11.698;2023-05-13T07:35:21;16.10;79.30
66928;DHT22;59882;45.624;11.698;2023-05-13T07:37:46;16.10;79.20
66928;DHT22;59882;45.624;11.698;2023-05-13T07:40:12;16.10;79.10
66928;DHT22;59882;45.624;11.698;2023-05-13T07:42:39;16.20;79.10
66928;DHT22;59882;45.624;11.698;2023-05-13T07:45:06;16.20;78.50
66928;DHT22;59882;45.624;11.698;2023-05-13T07:47:33;16.30;78.70
66928;DHT22;59882;45.624;11.698;2023-05-13T07:49:59;16.30;77.70
66928;DHT22;59882;45.624;11.698;2023-05-13T07:52:25;16.40;78.20
66928;DHT22;59882;45.624;11.698;2023-05-13T07:54:51;16.50;77.90
66928;DHT22;59882;45.624;11.698;2023-05-13T07:57:17;16.60;78.10
66928;DHT22;59882;45.624;11.698;2023-05-13T07:59:43;16.70;77.30
66928;DHT22;59882;45.624;11.698;2023-05-13T08:02:10;16.80;77.40
66928;DHT22;59882;45.624;11.698;2023-05-13T08:04:36;16.90;77.40
66928;DHT22;59882;45.624;11.698;2023-05-13T08:07:02;17.00;76.60
66928;DHT22;59882;45.624;11.698;2023-05-13T08:09:28;17.10;77.00
66928;DHT22;59882;45.624;11.698;2023-05-13T08:11:53;17.20;76.50
66928;DHT22;59882;45.624;11.698;2023-05-13T08:14:20;17.40;76.00
66928;DHT22;59882;45.624;11.698;2023-05-13T08:16:46;17.40;75.50
66928;DHT22;59882;45.624;11.698;2023-05-13T08:19:14;17.50;75.10
66928;DHT22;59882;45.624;11.698;2023-05-13T08:21:40;17.60;74.50
66928;DHT22;59882;45.624;11.698;2023-05-13T08:24:07;17.60;73.40
66928;DHT22;59882;45.624;11.698;2023-05-13T08:26:33;17.70;74.10
66928;DHT22;59882;45.624;11.698;2023-05-13T08:28:59;17.80;73.30
66928;DHT22;59882;45.624;11.698;2023-05-13T08:31:25;17.70;73.20
66928;DHT22;59882;45.624;11.698;2023-05-13T08:33:54;17.80;74.00
66928;DHT22;59882;45.624;11.698;2023-05-13T08:36:20;17.90;73.90
66928;DHT22;59882;45.624;11.698;2023-05-13T08:38:47;17.90;73.50
66928;DHT22;59882;45.624;11.698;2023-05-13T08:41:14;18.00;72.30
66928;DHT22;59882;45.624;11.698;2023-05-13T08:43:42;18.10;73.20
66928;DHT22;59882;45.624;11.698;2023-05-13T08:46:10;18.20;71.60
66928;DHT22;59882;45.624;11.698;2023-05-13T08:48:40;18.20;72.10
66928;DHT22;59882;45.624;11.698;2023-05-13T08:51:07;18.30;72.20
66928;DHT22;59882;45.624;11.698;2023-05-13T08:53:33;18.40;71.30
66928;DHT22;59882;45.624;11.698;2023-05-13T08:56:00;18.30;69.90
66928;DHT22;59882;45.624;11.698;2023-05-13T08:58:26;18.30;70.50
66928;DHT22;59882;45.624;11.698;2023-05-13T09:00:52;18.30;70.30
66928;DHT22;59882;45.624;11.698;2023-05-13T09:03:19;18.30;71.70
66928;DHT22;59882;45.624;11.698;2023-05-13T09:05:46;18.30;70.70
66928;DHT22;59882;45.624;11.698;2023-05-13T09:08:12;18.40;70.20
66928;DHT22;59882;45.624;11.698;2023-05-13T09:10:38;18.30;69.30
66928;DHT22;59882;45.624;11.698;2023-05-13T09:13:04;18.40;70.40
66928;DHT22;59882;45.624;11.698;2023-05-13T09:15:31;18.50;70.80
66928;DHT22;59882;45.624;11.698;2023-05-13T09:18:04;18.60;69.50
66928;DHT22;59882;45.624;11.698;2023-05-13T09:20:31;18.70;70.10
66928;DHT22;59882;45.624;11.698;2023-05-13T09:23:05;18.80;67.60
66928;DHT22;59882;45.624;11.698;2023-05-13T09:25:31;18.90;69.00
66928;DHT22;59882;45.624;11.698;2023-05-13T09:28:02;19.00;68.00
66928;DHT22;59882;45.624;11.698;2023-05-13T09:30:32;19.10;68.60
66928;DHT22;59882;45.624;11.698;2023-05-13T09:33:15;19.20;67.20
66928;DHT22;59882;45.624;11.698;2023-05-13T09:35:48;19.30;67.70
66928;DHT22;59882;45.624;11.698;2023-05-13T09:38:24;19.30;64.80
66928;DHT22;59882;45.624;11.698;2023-05-13T09:40:54;19.30;64.90
66928;DHT22;59882;45.624;11.698;2023-05-13T09:43:25;19.30;64.10
66928;DHT22;59882;45.624;11.698;2023-05-13T09:45:56;19.30;65.50
66928;DHT22;59882;45.624;11.698;2023-05-13T09:48:26;19.30;65.20
66928;DHT22;59882;45.624;11.698;2023-05-13T09:50:52;19.30;65.40
66928;DHT22;59882;45.624;11.698;2023-05-13T09:53:19;19.30;64.30
66928;DHT22;59882;45.624;11.698;2023-05-13T09:55:46;19.20;65.20
66928;DHT22;59882;45.624;11.698;2023-05-13T09:58:12;19.30;65.00
66928;DHT22;59882;45.624;11.698;2023-05-13T10:00:42;19.30;62.50
66928;DHT22;59882;45.624;11.698;2023-05-13T10:03:08;19.30;64.00
66928;DHT22;59882;45.624;11.698;2023-05-13T10:05:34;19.30;64.20
66928;DHT22;59882;45.624;11.698;2023-05-13T10:08:01;19.30;64.20
66928;DHT22;59882;45.624;11.698;2023-05-13T10:10:31;19.30;64.00
66928;DHT22;59882;45.624;11.698;2023-05-13T10:13:03;19.30;64.20
66928;DHT22;59882;45.624;11.698;2023-05-13T10:15:30;19.20;64.30
66928;DHT22;59882;45.624;11.698;2023-05-13T10:17:56;19.20;64.40
66928;DHT22;59882;45.624;11.698;2023-05-13T10:20:24;19.20;64.80
66928;DHT22;59882;45.624;11.698;2023-05-13T10:22:51;19.20;62.90
66928;DHT22;59882;45.624;11.698;2023-05-13T10:25:17;19.10;63.70
66928;DHT22;59882;45.624;11.698;2023-05-13T10:27:43;19.10;64.70
66928;DHT22;59882;45.624;11.698;2023-05-13T10:30:10;19.00;64.80
66928;DHT22;59882;45.624;11.698;2023-05-13T10:32:37;19.10;65.50
66928;DHT22;59882;45.624;11.698;2023-05-13T10:35:14;19.10;64.80
66928;DHT22;59882;45.624;11.698;2023-05-13T10:38:02;19.10;64.50
66928;DHT22;59882;45.624;11.698;2023-05-13T10:43:22;18.90;64.90
66928;DHT22;59882;45.624;11.698;2023-05-13T10:46:04;18.90;64.20
66928;DHT22;59882;45.624;11.698;2023-05-13T10:48:48;18.90;64.90
66928;DHT22;59882;45.624;11.698;2023-05-13T10:51:15;18.90;63.90
66928;DHT22;59882;45.624;11.698;2023-05-13T10:53:49;18.90;64.40
66928;DHT22;59882;45.624;11.698;2023-05-13T10:56:18;18.90;64.90
66928;DHT22;59882;45.624;11.698;2023-05-13T10:59:02;18.90;65.20
66928;DHT22;59882;45.624;11.698;2023-05-13T11:01:36;19.00;64.90
66928;DHT22;59882;45.624;11.698;2023-05-13T11:04:12;19.10;64.20
66928;DHT22;59882;45.624;11.698;2023-05-13T11:06:40;19.20;64.80
66928;DHT22;59882;45.624;11.698;2023-05-13T11:09:07;19.30;65.00
66928;DHT22;59882;45.624;11.698;2023-05-13T11:11:36;19.50;64.70
66928;DHT22;59882;45.624;11.698;2023-05-13T11:14:06;19.60;61.90
66928;DHT22;59882;45.624;11.698;2023-05-13T11:16:33;19.70;63.30
66928;DHT22;59882;45.624;11.698;2023-05-13T11:19:07;19.80;63.10
66928;DHT22;59882;45.624;11.698;2023-05-13T11:21:36;19.90;62.40
66928;DHT22;59882;45.624;11.698;2023-05-13T11:24:06;19.90;62.60
66928;DHT22;59882;45.624;11.698;2023-05-13T11:26:51;20.10;62.30
66928;DHT22;59882;45.624;11.698;2023-05-13T11:29:33;20.30;62.40
66928;DHT22;59882;45.624;11.698;2023-05-13T11:32:02;20.40;61.30
66928;DHT22;59882;45.624;11.698;2023-05-13T11:34:29;20.50;60.70
66928;DHT22;59882;45.624;11.698;2023-05-13T11:39:30;20.70;61.10
66928;DHT22;59882;45.624;11.698;2023-05-13T11:41:55;20.80;61.90
66928;DHT22;59882;45.624;11.698;2023-05-13T11:44:26;20.90;59.70
66928;DHT22;59882;45.624;11.698;2023-05-13T11:47:02;21.00;58.90
66928;DHT22;59882;45.624;11.698;2023-05-13T11:49:35;21.00;58.10
66928;DHT22;59882;45.624;11.698;2023-05-13T11:52:02;21.00;58.40
66928;DHT22;59882;45.624;11.698;2023-05-13T11:54:28;21.00;58.50
66928;DHT22;59882;45.624;11.698;2023-05-13T11:56:54;20.90;58.90
66928;DHT22;59882;45.624;11.698;2023-05-13T11:59:19;20.80;57.60
66928;DHT22;59882;45.624;11.698;2023-05-13T12:01:45;20.70;60.00
66928;DHT22;59882;45.624;11.698;2023-05-13T12:04:11;20.70;59.60
66928;DHT22;59882;45.624;11.698;2023-05-13T12:06:43;20.70;59.70
66928;DHT22;59882;45.624;11.698;2023-05-13T12:09:10;20.70;58.70
66928;DHT22;59882;45.624;11.698;2023-05-13T12:11:37;20.60;58.80
66928;DHT22;59882;45.624;11.698;2023-05-13T12:14:03;20.50;59.60
66928;DHT22;59882;45.624;11.698;2023-05-13T12:16:29;20.60;60.10
66928;DHT22;59882;45.624;11.698;2023-05-13T12:19:15;20.80;59.20
66928;DHT22;59882;45.624;11.698;2023-05-13T12:21:41;20.90;59.00
66928;DHT22;59882;45.624;11.698;2023-05-13T12:24:17;20.90;58.60
66928;DHT22;59882;45.624;11.698;2023-05-13T12:26:43;20.90;58.60
66928;DHT22;59882;45.624;11.698;2023-05-13T12:29:08;20.90;58.50
66928;DHT22;59882;45.624;11.698;2023-05-13T12:31:34;20.80;56.70
66928;DHT22;59882;45.624;11.698;2023-05-13T12:33:59;20.80;56.40
66928;DHT22;59882;45.624;11.698;2023-05-13T12:36:27;20.60;54.70
66928;DHT22;59882;45.624;11.698;2023-05-13T12:39:02;20.60;57.20
66928;DHT22;59882;45.624;11.698;2023-05-13T12:41:35;20.50;57.20
66928;DHT22;59882;45.624;11.698;2023-05-13T12:44:09;20.40;58.30
66928;DHT22;59882;45.624;11.698;2023-05-13T12:46:35;20.40;58.60
66928;DHT22;59882;45.624;11.698;2023-05-13T12:49:02;20.40;59.50
66928;DHT22;59882;45.624;11.698;2023-05-13T12:51:29;20.30;59.10
66928;DHT22;59882;45.624;11.698;2023-05-13T12:53:55;20.30;59.80
66928;DHT22;59882;45.624;11.698;2023-05-13T12:56:22;20.40;60.20
66928;DHT22;59882;45.624;11.698;2023-05-13T12:58:49;21.90;55.20
66928;DHT22;59882;45.624;11.698;2023-05-13T13:01:15;22.40;55.20
66928;DHT22;59882;45.624;11.698;2023-05-13T13:03:41;22.20;55.40
66928;DHT22;59882;45.624;11.698;2023-05-13T13:06:07;21.90;55.50
66928;DHT22;59882;45.624;11.698;2023-05-13T13:08:35;21.60;56.30
66928;DHT22;59882;45.624;11.698;2023-05-13T13:11:01;21.30;56.30
66928;DHT22;59882;45.624;11.698;2023-05-13T13:13:26;21.00;56.90
66928;DHT22;59882;45.624;11.698;2023-05-13T13:15:52;20.80;57.80
66928;DHT22;59882;45.624;11.698;2023-05-13T13:18:18;20.70;58.90
66928;DHT22;59882;45.624;11.698;2023-05-13T13:20:43;20.60;59.20
66928;DHT22;59882;45.624;11.698;2023-05-13T13:23:09;20.40;59.70
66928;DHT22;59882;45.624;11.698;2023-05-13T13:25:35;20.30;60.50
66928;DHT22;59882;45.624;11.698;2023-05-13T13:28:01;20.20;62.30
66928;DHT22;59882;45.624;11.698;2023-05-13T13:30:27;20.10;62.20
66928;DHT22;59882;45.624;11.698;2023-05-13T13:32:52;20.10;62.50
66928;DHT22;59882;45.624;11.698;2023-05-13T13:35:18;20.00;63.00
66928;DHT22;59882;45.624;11.698;2023-05-13T13:37:43;20.00;62.50
66928;DHT22;59882;45.624;11.698;2023-05-13T13:40:10;20.00;63.00
66928;DHT22;59882;45.624;11.698;2023-05-13T13:42:35;20.10;63.40
66928;DHT22;59882;45.624;11.698;2023-05-13T13:45:01;20.00;62.20
66928;DHT22;59882;45.624;11.698;2023-05-13T13:47:28;20.00;62.60
66928;DHT22;59882;45.624;11.698;2023-05-13T13:49:53;20.10;63.90
66928;DHT22;59882;45.624;11.698;2023-05-13T13:52:19;20.30;63.50
66928;DHT22;59882;45.624;11.698;2023-05-13T13:54:47;20.60;64.90
66928;DHT22;59882;45.624;11.698;2023-05-13T13:57:13;21.10;65.60
66928;DHT22;59882;45.624;11.698;2023-05-13T13:59:39;21.40;64.90
66928;DHT22;59882;45.624;11.698;2023-05-13T14:02:05;21.30;64.60
66928;DHT22;59882;45.624;11.698;2023-05-13T14:04:31;21.10;64.70
66928;DHT22;59882;45.624;11.698;2023-05-13T14:06:57;20.90;65.00
66928;DHT22;59882;45.624;11.698;2023-05-13T14:09:23;20.80;65.30
66928;DHT22;59882;45.624;11.698;2023-05-13T14:11:49;20.50;66.40
66928;DHT22;59882;45.624;11.698;2023-05-13T14:14:15;20.40;66.50
66928;DHT22;59882;45.624;11.698;2023-05-13T14:16:40;20.20;66.90
66928;DHT22;59882;45.624;11.698;2023-05-13T14:19:06;20.00;68.00
66928;DHT22;59882;45.624;11.698;2023-05-13T14:21:32;19.90;68.40
66928;DHT22;59882;45.624;11.698;2023-05-13T14:23:57;19.70;69.10
66928;DHT22;59882;45.624;11.698;2023-05-13T14:26:23;19.60;69.50
66928;DHT22;59882;45.624;11.698;2023-05-13T14:28:49;19.40;69.70
66928;DHT22;59882;45.624;11.698;2023-05-13T14:31:14;19.30;70.50
66928;DHT22;59882;45.624;11.698;2023-05-13T14:33:40;19.20;71.50
66928;DHT22;59882;45.624;11.698;2023-05-13T14:36:06;19.00;72.20
66928;DHT22;59882;45.624;11.698;2023-05-13T14:38:34;18.80;71.90
66928;DHT22;59882;45.624;11.698;2023-05-13T14:40:59;18.70;72.60
66928;DHT22;59882;45.624;11.698;2023-05-13T14:43:25;18.50;72.20
66928;DHT22;59882;45.624;11.698;2023-05-13T14:45:51;18.50;73.20
66928;DHT22;59882;45.624;11.698;2023-05-13T14:48:18;18.30;73.00
66928;DHT22;59882;45.624;11.698;2023-05-13T14:50:44;18.20;72.90
66928;DHT22;59882;45.624;11.698;2023-05-13T14:53:10;18.20;73.50
66928;DHT22;59882;45.624;11.698;2023-05-13T14:55:36;18.10;73.80
66928;DHT22;59882;45.624;11.698;2023-05-13T14:58:02;18.10;74.20
66928;DHT22;59882;45.624;11.698;2023-05-13T15:00:28;18.00;73.70
66928;DHT22;59882;45.624;11.698;2023-05-13T15:02:54;18.00;74.20
66928;DHT22;59882;45.624;11.698;2023-05-13T15:05:20;17.90;74.10
66928;DHT22;59882;45.624;11.698;2023-05-13T15:07:45;17.90;73.80
66928;DHT22;59882;45.624;11.698;2023-05-13T15:10:11;17.90;73.90
66928;DHT22;59882;45.624;11.698;2023-05-13T15:12:37;17.90;73.60
66928;DHT22;59882;45.624;11.698;2023-05-13T15:15:03;17.90;74.40
66928;DHT22;59882;45.624;11.698;2023-05-13T15:17:28;17.80;73.90
66928;DHT22;59882;45.624;11.698;2023-05-13T15:19:54;17.70;74.40
66928;DHT22;59882;45.624;11.698;2023-05-13T15:22:20;17.60;75.00
66928;DHT22;59882;45.624;11.698;2023-05-13T15:24:45;17.50;75.00